sensor_id;sensor_type;location;lat;lon;timestamp;P1;durP1;ratioP1;P2;durP2;ratioP2
30874;SDS011;17581;43.222;27.924;2023-12-04T00:01:57;11.07;;;9.60;;
30874;SDS011;17581;43.222;27.924;2023-12-04T00:04:23;13.18;;;10.88;;
30874;SDS011;17581;43.222;27.924;2023-12-04T00:06:49;13.80;;;10.85;;
30874;SDS011;17581;43.222;27.924;2023-12-04T00:09:14;13.30;;;10.48;;
30874;SDS011;17581;43.222;27.924;2023-12-04T00:11:40;12.35;;;10.40;;
30874;SDS011;17581;43.222;27.924;2023-12-04T00:14:05;13.82;;;11.25;;
30874;SDS011;17581;43.222;27.924;2023-12-04T00:16:33;14.68;;;11.32;;
30874;SDS011;17581;43.222;27.924;2023-12-04T00:19:00;14.20;;;11.25;;
30874;SDS011;17581;43.222;27.924;2023-12-04T00:21:26;12.77;;;10.70;;
30874;SDS011;17581;43.222;27.924;2023-12-04T00:23:51;14.70;;;11.80;;
30874;SDS011;17581;43.222;27.924;2023-12-04T00:26:17;18.67;;;12.50;;
30874;SDS011;17581;43.222;27.924;2023-12-04T00:28:42;15.93;;;11.68;;
30874;SDS011;17581;43.222;27.924;2023-12-04T00:31:08;15.02;;;11.82;;
30874;SDS011;17581;43.222;27.924;2023-12-04T00:33:35;16.00;;;12.50;;
30874;SDS011;17581;43.222;27.924;2023-12-04T00:36:01;15.23;;;12.10;;
30874;SDS011;17581;43.222;27.924;2023-12-04T00:38:26;15.65;;;12.43;;
30874;SDS011;17581;43.222;27.924;2023-12-04T00:40:52;18.33;;;13.32;;
30874;SDS011;17581;43.222;27.924;2023-12-04T00:43:17;19.48;;;13.98;;
30874;SDS011;17581;43.222;27.924;2023-12-04T00:45:43;21.63;;;13.93;;
30874;SDS011;17581;43.222;27.924;2023-12-04T00:48:08;17.48;;;13.85;;
30874;SDS011;17581;43.222;27.924;2023-12-04T00:50:34;17.92;;;12.57;;
30874;SDS011;17581;43.222;27.924;2023-12-04T00:53:00;18.27;;;13.93;;
30874;SDS011;17581;43.222;27.924;2023-12-04T00:55:26;18.77;;;13.98;;
30874;SDS011;17581;43.222;27.924;2023-12-04T00:57:51;18.42;;;13.55;;
30874;SDS011;17581;43.222;27.924;2023-12-04T01:00:17;17.05;;;13.48;;
30874;SDS011;17581;43.222;27.924;2023-12-04T01:02:43;22.20;;;14.05;;
30874;SDS011;17581;43.222;27.924;2023-12-04T01:05:08;18.45;;;13.40;;
30874;SDS011;17581;43.222;27.924;2023-12-04T01:07:34;18.98;;;14.05;;
30874;SDS011;17581;43.222;27.924;2023-12-04T01:09:59;18.05;;;14.77;;
30874;SDS011;17581;43.222;27.924;2023-12-04T01:12:25;20.83;;;14.80;;
30874;SDS011;17581;43.222;27.924;2023-12-04T01:14:51;21.17;;;15.07;;
30874;SDS011;17581;43.222;27.924;2023-12-04T01:17:17;19.52;;;13.45;;
30874;SDS011;17581;43.222;27.924;2023-12-04T01:19:42;21.73;;;14.15;;
30874;SDS011;17581;43.222;27.924;2023-12-04T01:22:08;23.98;;;15.60;;
30874;SDS011;17581;43.222;27.924;2023-12-04T01:24:33;20.77;;;14.95;;
30874;SDS011;17581;43.222;27.924;2023-12-04T01:26:59;18.80;;;14.18;;
30874;SDS011;17581;43.222;27.924;2023-12-04T01:29:24;19.85;;;14.43;;
30874;SDS011;17581;43.222;27.924;2023-12-04T01:31:50;18.58;;;14.48;;
30874;SDS011;17581;43.222;27.924;2023-12-04T01:34:15;21.08;;;15.32;;
30874;SDS011;17581;43.222;27.924;2023-12-04T01:36:41;22.48;;;16.10;;
30874;SDS011;17581;43.222;27.924;2023-12-04T01:39:07;19.40;;;14.15;;
30874;SDS011;17581;43.222;27.924;2023-12-04T01:41:32;17.92;;;13.23;;
30874;SDS011;17581;43.222;27.924;2023-12-04T01:43:58;23.17;;;16.77;;
30874;SDS011;17581;43.222;27.924;2023-12-04T01:46:23;19.30;;;15.43;;
30874;SDS011;17581;43.222;27.924;2023-12-04T01:48:49;20.30;;;14.55;;
30874;SDS011;17581;43.222;27.924;2023-12-04T01:51:15;18.00;;;13.75;;
30874;SDS011;17581;43.222;27.924;2023-12-04T01:53:42;22.05;;;15.60;;
30874;SDS011;17581;43.222;27.924;2023-12-04T01:56:09;21.33;;;15.70;;
30874;SDS011;17581;43.222;27.924;2023-12-04T01:58:35;18.17;;;13.60;;
30874;SDS011;17581;43.222;27.924;2023-12-04T02:01:00;18.63;;;14.40;;
30874;SDS011;17581;43.222;27.924;2023-12-04T02:03:27;20.83;;;14.73;;
30874;SDS011;17581;43.222;27.924;2023-12-04T02:05:53;19.05;;;13.95;;
30874;SDS011;17581;43.222;27.924;2023-12-04T02:08:19;17.10;;;13.15;;
30874;SDS011;17581;43.222;27.924;2023-12-04T02:10:45;18.27;;;13.30;;
30874;SDS011;17581;43.222;27.924;2023-12-04T02:13:11;18.20;;;14.32;;
30874;SDS011;17581;43.222;27.924;2023-12-04T02:15:37;20.20;;;15.02;;
30874;SDS011;17581;43.222;27.924;2023-12-04T02:18:03;19.35;;;14.10;;
30874;SDS011;17581;43.222;27.924;2023-12-04T02:20:32;18.00;;;13.95;;
30874;SDS011;17581;43.222;27.924;2023-12-04T02:23:01;23.35;;;14.05;;
30874;SDS011;17581;43.222;27.924;2023-12-04T02:25:27;21.60;;;15.35;;
30874;SDS011;17581;43.222;27.924;2023-12-04T02:27:53;18.23;;;14.00;;
30874;SDS011;17581;43.222;27.924;2023-12-04T02:30:22;19.63;;;15.13;;
30874;SDS011;17581;43.222;27.924;2023-12-04T02:32:49;21.35;;;15.07;;
30874;SDS011;17581;43.222;27.924;2023-12-04T02:35:20;25.60;;;15.27;;
30874;SDS011;17581;43.222;27.924;2023-12-04T02:37:49;22.65;;;14.52;;
30874;SDS011;17581;43.222;27.924;2023-12-04T02:40:16;23.50;;;15.40;;
30874;SDS011;17581;43.222;27.924;2023-12-04T02:42:41;22.35;;;16.48;;
30874;SDS011;17581;43.222;27.924;2023-12-04T02:45:07;22.17;;;16.83;;
30874;SDS011;17581;43.222;27.924;2023-12-04T02:47:33;24.15;;;17.30;;
30874;SDS011;17581;43.222;27.924;2023-12-04T02:49:59;17.02;;;13.63;;
30874;SDS011;17581;43.222;27.924;2023-12-04T02:52:24;19.88;;;15.55;;
30874;SDS011;17581;43.222;27.924;2023-12-04T02:54:50;22.33;;;15.95;;
30874;SDS011;17581;43.222;27.924;2023-12-04T02:57:15;21.63;;;15.90;;
30874;SDS011;17581;43.222;27.924;2023-12-04T02:59:41;27.40;;;17.10;;
30874;SDS011;17581;43.222;27.924;2023-12-04T03:02:07;23.42;;;17.65;;
30874;SDS011;17581;43.222;27.924;2023-12-04T03:04:33;21.90;;;15.55;;
30874;SDS011;17581;43.222;27.924;2023-12-04T03:07:00;21.75;;;16.05;;
30874;SDS011;17581;43.222;27.924;2023-12-04T03:09:26;20.20;;;16.17;;
30874;SDS011;17581;43.222;27.924;2023-12-04T03:11:51;25.17;;;17.20;;
30874;SDS011;17581;43.222;27.924;2023-12-04T03:14:17;25.95;;;16.95;;
30874;SDS011;17581;43.222;27.924;2023-12-04T03:16:42;22.83;;;16.17;;
30874;SDS011;17581;43.222;27.924;2023-12-04T03:19:08;26.65;;;17.17;;
30874;SDS011;17581;43.222;27.924;2023-12-04T03:21:33;21.40;;;15.88;;
30874;SDS011;17581;43.222;27.924;2023-12-04T03:23:59;23.38;;;16.83;;
30874;SDS011;17581;43.222;27.924;2023-12-04T03:26:24;22.67;;;15.98;;
30874;SDS011;17581;43.222;27.924;2023-12-04T03:28:50;24.92;;;16.10;;
30874;SDS011;17581;43.222;27.924;2023-12-04T03:31:16;25.20;;;16.15;;
30874;SDS011;17581;43.222;27.924;2023-12-04T03:33:41;21.13;;;15.60;;
30874;SDS011;17581;43.222;27.924;2023-12-04T03:36:07;22.35;;;16.73;;
30874;SDS011;17581;43.222;27.924;2023-12-04T03:38:33;23.88;;;16.67;;
30874;SDS011;17581;43.222;27.924;2023-12-04T03:40:58;21.85;;;17.17;;
30874;SDS011;17581;43.222;27.924;2023-12-04T03:43:24;23.65;;;16.98;;
30874;SDS011;17581;43.222;27.924;2023-12-04T03:45:49;27.02;;;18.50;;
30874;SDS011;17581;43.222;27.924;2023-12-04T03:48:15;27.33;;;16.50;;
30874;SDS011;17581;43.222;27.924;2023-12-04T03:50:40;25.02;;;17.05;;
30874;SDS011;17581;43.222;27.924;2023-12-04T03:53:06;30.05;;;17.65;;
30874;SDS011;17581;43.222;27.924;2023-12-04T03:55:31;28.83;;;18.45;;
30874;SDS011;17581;43.222;27.924;2023-12-04T03:57:57;22.20;;;16.88;;
30874;SDS011;17581;43.222;27.924;2023-12-04T04:00:23;35.35;;;17.02;;
30874;SDS011;17581;43.222;27.924;2023-12-04T04:02:49;25.23;;;17.40;;
30874;SDS011;17581;43.222;27.924;2023-12-04T04:05:14;25.05;;;17.05;;
30874;SDS011;17581;43.222;27.924;2023-12-04T04:07:40;25.92;;;17.60;;
30874;SDS011;17581;43.222;27.924;2023-12-04T04:10:06;24.95;;;16.85;;
30874;SDS011;17581;43.222;27.924;2023-12-04T04:12:32;23.55;;;17.52;;
30874;SDS011;17581;43.222;27.924;2023-12-04T04:14:58;24.02;;;17.55;;
30874;SDS011;17581;43.222;27.924;2023-12-04T04:17:24;22.85;;;17.02;;
30874;SDS011;17581;43.222;27.924;2023-12-04T04:19:53;27.55;;;17.63;;
30874;SDS011;17581;43.222;27.924;2023-12-04T04:22:19;27.42;;;18.45;;
30874;SDS011;17581;43.222;27.924;2023-12-04T04:24:45;27.63;;;18.33;;
30874;SDS011;17581;43.222;27.924;2023-12-04T04:27:11;26.63;;;17.83;;
30874;SDS011;17581;43.222;27.924;2023-12-04T04:29:36;29.63;;;20.00;;
30874;SDS011;17581;43.222;27.924;2023-12-04T04:32:02;27.70;;;18.48;;
30874;SDS011;17581;43.222;27.924;2023-12-04T04:34:28;27.88;;;19.23;;
30874;SDS011;17581;43.222;27.924;2023-12-04T04:36:53;30.90;;;20.08;;
30874;SDS011;17581;43.222;27.924;2023-12-04T04:39:19;26.83;;;19.13;;
30874;SDS011;17581;43.222;27.924;2023-12-04T04:41:44;32.22;;;21.98;;
30874;SDS011;17581;43.222;27.924;2023-12-04T04:44:10;32.30;;;19.65;;
30874;SDS011;17581;43.222;27.924;2023-12-04T04:46:35;24.73;;;17.48;;
30874;SDS011;17581;43.222;27.924;2023-12-04T04:49:01;24.50;;;17.33;;
30874;SDS011;17581;43.222;27.924;2023-12-04T04:51:27;27.42;;;18.95;;
30874;SDS011;17581;43.222;27.924;2023-12-04T04:53:54;30.00;;;18.42;;
30874;SDS011;17581;43.222;27.924;2023-12-04T04:56:20;30.50;;;20.73;;
30874;SDS011;17581;43.222;27.924;2023-12-04T04:58:46;31.30;;;20.40;;
30874;SDS011;17581;43.222;27.924;2023-12-04T05:01:12;24.98;;;18.85;;
30874;SDS011;17581;43.222;27.924;2023-12-04T05:03:37;25.67;;;18.92;;
30874;SDS011;17581;43.222;27.924;2023-12-04T05:06:03;29.38;;;19.88;;
30874;SDS011;17581;43.222;27.924;2023-12-04T05:08:29;26.77;;;19.77;;
30874;SDS011;17581;43.222;27.924;2023-12-04T05:10:54;29.13;;;18.63;;
30874;SDS011;17581;43.222;27.924;2023-12-04T05:13:19;31.10;;;20.02;;
30874;SDS011;17581;43.222;27.924;2023-12-04T05:15:45;27.55;;;18.08;;
30874;SDS011;17581;43.222;27.924;2023-12-04T05:18:11;28.20;;;20.20;;
30874;SDS011;17581;43.222;27.924;2023-12-04T05:20:36;35.08;;;21.55;;
30874;SDS011;17581;43.222;27.924;2023-12-04T05:23:02;29.25;;;18.85;;
30874;SDS011;17581;43.222;27.924;2023-12-04T05:25:27;30.25;;;20.30;;
30874;SDS011;17581;43.222;27.924;2023-12-04T05:27:53;35.33;;;22.10;;
30874;SDS011;17581;43.222;27.924;2023-12-04T05:30:18;31.55;;;20.90;;
30874;SDS011;17581;43.222;27.924;2023-12-04T05:32:44;31.95;;;21.08;;
30874;SDS011;17581;43.222;27.924;2023-12-04T05:35:09;33.28;;;21.67;;
30874;SDS011;17581;43.222;27.924;2023-12-04T05:37:35;32.50;;;21.80;;
30874;SDS011;17581;43.222;27.924;2023-12-04T05:40:00;30.25;;;20.75;;
30874;SDS011;17581;43.222;27.924;2023-12-04T05:42:26;28.00;;;18.98;;
30874;SDS011;17581;43.222;27.924;2023-12-04T05:44:51;31.83;;;21.00;;
30874;SDS011;17581;43.222;27.924;2023-12-04T05:47:20;33.38;;;20.45;;
30874;SDS011;17581;43.222;27.924;2023-12-04T05:49:46;31.75;;;20.75;;
30874;SDS011;17581;43.222;27.924;2023-12-04T05:52:12;33.28;;;21.20;;
30874;SDS011;17581;43.222;27.924;2023-12-04T05:54:38;28.17;;;20.08;;
30874;SDS011;17581;43.222;27.924;2023-12-04T05:57:03;33.45;;;21.33;;
30874;SDS011;17581;43.222;27.924;2023-12-04T05:59:29;33.13;;;20.67;;
30874;SDS011;17581;43.222;27.924;2023-12-04T06:01:55;35.95;;;24.17;;
30874;SDS011;17581;43.222;27.924;2023-12-04T06:04:20;41.63;;;22.27;;
30874;SDS011;17581;43.222;27.924;2023-12-04T06:06:46;41.28;;;26.15;;
30874;SDS011;17581;43.222;27.924;2023-12-04T06:09:11;34.22;;;22.67;;
30874;SDS011;17581;43.222;27.924;2023-12-04T06:11:37;31.77;;;21.55;;
30874;SDS011;17581;43.222;27.924;2023-12-04T06:14:02;32.72;;;21.55;;
30874;SDS011;17581;43.222;27.924;2023-12-04T06:16:28;35.63;;;20.45;;
30874;SDS011;17581;43.222;27.924;2023-12-04T06:18:54;31.23;;;21.75;;
30874;SDS011;17581;43.222;27.924;2023-12-04T06:21:19;31.85;;;21.52;;
30874;SDS011;17581;43.222;27.924;2023-12-04T06:23:45;33.15;;;20.30;;
30874;SDS011;17581;43.222;27.924;2023-12-04T06:26:10;34.63;;;21.95;;
30874;SDS011;17581;43.222;27.924;2023-12-04T06:28:37;27.85;;;20.08;;
30874;SDS011;17581;43.222;27.924;2023-12-04T06:31:03;30.15;;;19.95;;
30874;SDS011;17581;43.222;27.924;2023-12-04T06:33:29;36.03;;;20.92;;
30874;SDS011;17581;43.222;27.924;2023-12-04T06:35:55;30.90;;;20.27;;
30874;SDS011;17581;43.222;27.924;2023-12-04T06:38:22;31.63;;;22.20;;
30874;SDS011;17581;43.222;27.924;2023-12-04T06:40:50;38.72;;;21.90;;
30874;SDS011;17581;43.222;27.924;2023-12-04T06:43:16;39.60;;;21.67;;
30874;SDS011;17581;43.222;27.924;2023-12-04T06:45:44;29.52;;;20.13;;
30874;SDS011;17581;43.222;27.924;2023-12-04T06:48:13;30.33;;;20.70;;
30874;SDS011;17581;43.222;27.924;2023-12-04T06:50:40;28.75;;;19.15;;
30874;SDS011;17581;43.222;27.924;2023-12-04T06:53:06;35.55;;;20.88;;
30874;SDS011;17581;43.222;27.924;2023-12-04T06:55:31;29.40;;;20.48;;
30874;SDS011;17581;43.222;27.924;2023-12-04T06:57:57;33.63;;;21.00;;
30874;SDS011;17581;43.222;27.924;2023-12-04T07:00:23;31.67;;;19.40;;
30874;SDS011;17581;43.222;27.924;2023-12-04T07:02:49;27.05;;;19.65;;
30874;SDS011;17581;43.222;27.924;2023-12-04T07:05:15;32.20;;;21.80;;
30874;SDS011;17581;43.222;27.924;2023-12-04T07:07:41;31.88;;;20.23;;
30874;SDS011;17581;43.222;27.924;2023-12-04T07:10:07;32.88;;;21.92;;
30874;SDS011;17581;43.222;27.924;2023-12-04T07:12:33;40.10;;;23.92;;
30874;SDS011;17581;43.222;27.924;2023-12-04T07:14:58;36.38;;;24.20;;
30874;SDS011;17581;43.222;27.924;2023-12-04T07:17:24;34.40;;;21.63;;
30874;SDS011;17581;43.222;27.924;2023-12-04T07:19:49;35.42;;;21.38;;
30874;SDS011;17581;43.222;27.924;2023-12-04T07:22:14;47.20;;;26.60;;
30874;SDS011;17581;43.222;27.924;2023-12-04T07:24:40;37.38;;;23.17;;
30874;SDS011;17581;43.222;27.924;2023-12-04T07:27:05;36.90;;;22.55;;
30874;SDS011;17581;43.222;27.924;2023-12-04T07:29:31;31.75;;;20.27;;
30874;SDS011;17581;43.222;27.924;2023-12-04T07:31:57;35.38;;;21.30;;
30874;SDS011;17581;43.222;27.924;2023-12-04T07:34:23;34.03;;;21.42;;
30874;SDS011;17581;43.222;27.924;2023-12-04T07:36:49;38.83;;;23.25;;
30874;SDS011;17581;43.222;27.924;2023-12-04T07:39:15;39.95;;;23.35;;
30874;SDS011;17581;43.222;27.924;2023-12-04T07:41:41;34.38;;;22.98;;
30874;SDS011;17581;43.222;27.924;2023-12-04T07:44:07;34.45;;;22.02;;
30874;SDS011;17581;43.222;27.924;2023-12-04T07:46:33;30.80;;;19.92;;
30874;SDS011;17581;43.222;27.924;2023-12-04T07:48:59;33.00;;;22.42;;
30874;SDS011;17581;43.222;27.924;2023-12-04T07:51:24;36.47;;;21.23;;
30874;SDS011;17581;43.222;27.924;2023-12-04T07:53:50;38.67;;;22.20;;
30874;SDS011;17581;43.222;27.924;2023-12-04T07:56:15;38.88;;;22.85;;
30874;SDS011;17581;43.222;27.924;2023-12-04T07:58:41;32.25;;;22.50;;
30874;SDS011;17581;43.222;27.924;2023-12-04T08:01:06;33.17;;;21.75;;
30874;SDS011;17581;43.222;27.924;2023-12-04T08:03:32;35.45;;;22.40;;
30874;SDS011;17581;43.222;27.924;2023-12-04T08:05:58;40.60;;;22.33;;
30874;SDS011;17581;43.222;27.924;2023-12-04T08:08:23;45.40;;;24.95;;
30874;SDS011;17581;43.222;27.924;2023-12-04T08:10:49;35.80;;;21.92;;
30874;SDS011;17581;43.222;27.924;2023-12-04T08:13:15;36.20;;;23.92;;
30874;SDS011;17581;43.222;27.924;2023-12-04T08:15:41;32.85;;;21.70;;
30874;SDS011;17581;43.222;27.924;2023-12-04T08:18:07;37.33;;;21.85;;
30874;SDS011;17581;43.222;27.924;2023-12-04T08:20:33;35.13;;;21.98;;
30874;SDS011;17581;43.222;27.924;2023-12-04T08:22:58;39.22;;;21.58;;
30874;SDS011;17581;43.222;27.924;2023-12-04T08:25:24;30.75;;;20.55;;
30874;SDS011;17581;43.222;27.924;2023-12-04T08:27:49;39.85;;;20.70;;
30874;SDS011;17581;43.222;27.924;2023-12-04T08:30:16;22.92;;;16.55;;
30874;SDS011;17581;43.222;27.924;2023-12-04T08:32:41;33.45;;;19.85;;
30874;SDS011;17581;43.222;27.924;2023-12-04T08:35:07;33.47;;;21.80;;
30874;SDS011;17581;43.222;27.924;2023-12-04T08:37:32;28.67;;;18.45;;
30874;SDS011;17581;43.222;27.924;2023-12-04T08:39:58;30.60;;;20.25;;
30874;SDS011;17581;43.222;27.924;2023-12-04T08:42:23;34.03;;;20.98;;
30874;SDS011;17581;43.222;27.924;2023-12-04T08:44:49;29.55;;;20.42;;
30874;SDS011;17581;43.222;27.924;2023-12-04T08:47:14;33.45;;;21.25;;
30874;SDS011;17581;43.222;27.924;2023-12-04T08:49:40;35.85;;;21.27;;
30874;SDS011;17581;43.222;27.924;2023-12-04T08:52:08;39.45;;;23.52;;
30874;SDS011;17581;43.222;27.924;2023-12-04T08:54:35;33.90;;;20.10;;
30874;SDS011;17581;43.222;27.924;2023-12-04T08:57:03;43.92;;;24.50;;
30874;SDS011;17581;43.222;27.924;2023-12-04T08:59:29;32.22;;;21.50;;
30874;SDS011;17581;43.222;27.924;2023-12-04T09:01:54;37.10;;;22.27;;
30874;SDS011;17581;43.222;27.924;2023-12-04T09:04:20;34.30;;;22.75;;
30874;SDS011;17581;43.222;27.924;2023-12-04T09:06:45;34.80;;;20.10;;
30874;SDS011;17581;43.222;27.924;2023-12-04T09:09:11;36.03;;;22.33;;
30874;SDS011;17581;43.222;27.924;2023-12-04T09:11:40;37.92;;;22.45;;
30874;SDS011;17581;43.222;27.924;2023-12-04T09:14:09;32.58;;;21.40;;
30874;SDS011;17581;43.222;27.924;2023-12-04T09:16:35;42.42;;;22.75;;
30874;SDS011;17581;43.222;27.924;2023-12-04T09:19:00;39.80;;;22.92;;
30874;SDS011;17581;43.222;27.924;2023-12-04T09:21:26;37.42;;;22.10;;
30874;SDS011;17581;43.222;27.924;2023-12-04T09:23:51;35.28;;;21.15;;
30874;SDS011;17581;43.222;27.924;2023-12-04T09:26:17;34.13;;;22.00;;
30874;SDS011;17581;43.222;27.924;2023-12-04T09:28:43;42.17;;;25.27;;
30874;SDS011;17581;43.222;27.924;2023-12-04T09:31:08;49.78;;;26.05;;
30874;SDS011;17581;43.222;27.924;2023-12-04T09:33:34;45.67;;;22.60;;
30874;SDS011;17581;43.222;27.924;2023-12-04T09:36:01;40.47;;;22.42;;
30874;SDS011;17581;43.222;27.924;2023-12-04T09:38:27;33.65;;;21.50;;
30874;SDS011;17581;43.222;27.924;2023-12-04T09:40:52;34.53;;;21.58;;
30874;SDS011;17581;43.222;27.924;2023-12-04T09:43:19;32.63;;;20.73;;
30874;SDS011;17581;43.222;27.924;2023-12-04T09:45:45;42.75;;;20.83;;
30874;SDS011;17581;43.222;27.924;2023-12-04T09:48:11;36.70;;;21.48;;
30874;SDS011;17581;43.222;27.924;2023-12-04T09:50:37;30.15;;;19.33;;
30874;SDS011;17581;43.222;27.924;2023-12-04T09:53:04;38.28;;;23.65;;
30874;SDS011;17581;43.222;27.924;2023-12-04T09:55:35;41.40;;;22.63;;
30874;SDS011;17581;43.222;27.924;2023-12-04T09:58:00;36.90;;;22.02;;
30874;SDS011;17581;43.222;27.924;2023-12-04T10:00:26;38.40;;;21.10;;
30874;SDS011;17581;43.222;27.924;2023-12-04T10:02:52;34.38;;;22.38;;
30874;SDS011;17581;43.222;27.924;2023-12-04T10:05:19;33.75;;;20.90;;
30874;SDS011;17581;43.222;27.924;2023-12-04T10:07:46;33.25;;;21.23;;
30874;SDS011;17581;43.222;27.924;2023-12-04T10:10:12;39.17;;;21.05;;
30874;SDS011;17581;43.222;27.924;2023-12-04T10:12:39;35.15;;;19.80;;
30874;SDS011;17581;43.222;27.924;2023-12-04T10:15:11;32.80;;;21.27;;
30874;SDS011;17581;43.222;27.924;2023-12-04T10:17:38;32.08;;;19.90;;
30874;SDS011;17581;43.222;27.924;2023-12-04T10:20:11;32.15;;;20.73;;
30874;SDS011;17581;43.222;27.924;2023-12-04T10:22:52;30.65;;;20.02;;
30874;SDS011;17581;43.222;27.924;2023-12-04T10:25:23;30.95;;;19.35;;
30874;SDS011;17581;43.222;27.924;2023-12-04T10:27:50;37.65;;;20.65;;
30874;SDS011;17581;43.222;27.924;2023-12-04T10:30:27;31.75;;;20.73;;
30874;SDS011;17581;43.222;27.924;2023-12-04T10:32:54;33.05;;;19.98;;
30874;SDS011;17581;43.222;27.924;2023-12-04T10:35:20;35.15;;;21.02;;
30874;SDS011;17581;43.222;27.924;2023-12-04T10:37:46;29.38;;;20.20;;
30874;SDS011;17581;43.222;27.924;2023-12-04T10:40:11;28.05;;;18.73;;
30874;SDS011;17581;43.222;27.924;2023-12-04T10:42:48;28.88;;;18.52;;
30874;SDS011;17581;43.222;27.924;2023-12-04T10:45:13;35.30;;;20.23;;
30874;SDS011;17581;43.222;27.924;2023-12-04T10:47:39;32.38;;;18.67;;
30874;SDS011;17581;43.222;27.924;2023-12-04T10:50:05;32.35;;;21.00;;
30874;SDS011;17581;43.222;27.924;2023-12-04T10:52:32;29.65;;;18.35;;
30874;SDS011;17581;43.222;27.924;2023-12-04T10:54:58;28.70;;;18.55;;
30874;SDS011;17581;43.222;27.924;2023-12-04T10:57:27;36.22;;;21.30;;
30874;SDS011;17581;43.222;27.924;2023-12-04T11:00:01;29.20;;;19.38;;
30874;SDS011;17581;43.222;27.924;2023-12-04T11:02:28;31.17;;;20.50;;
30874;SDS011;17581;43.222;27.924;2023-12-04T11:05:17;28.70;;;19.33;;
30874;SDS011;17581;43.222;27.924;2023-12-04T11:08:00;30.10;;;19.27;;
30874;SDS011;17581;43.222;27.924;2023-12-04T11:10:27;33.15;;;20.02;;
30874;SDS011;17581;43.222;27.924;2023-12-04T11:12:57;35.75;;;20.73;;
30874;SDS011;17581;43.222;27.924;2023-12-04T11:15:39;33.72;;;19.52;;
30874;SDS011;17581;43.222;27.924;2023-12-04T11:18:09;33.88;;;20.55;;
30874;SDS011;17581;43.222;27.924;2023-12-04T11:20:39;31.85;;;20.25;;
30874;SDS011;17581;43.222;27.924;2023-12-04T11:23:09;29.35;;;19.40;;
30874;SDS011;17581;43.222;27.924;2023-12-04T11:25:35;28.30;;;18.25;;
30874;SDS011;17581;43.222;27.924;2023-12-04T11:28:01;32.67;;;20.65;;
30874;SDS011;17581;43.222;27.924;2023-12-04T11:30:28;33.67;;;21.33;;
30874;SDS011;17581;43.222;27.924;2023-12-04T11:32:54;45.13;;;21.23;;
30874;SDS011;17581;43.222;27.924;2023-12-04T11:35:25;32.88;;;21.40;;
30874;SDS011;17581;43.222;27.924;2023-12-04T11:37:51;36.75;;;21.67;;
30874;SDS011;17581;43.222;27.924;2023-12-04T11:40:17;30.75;;;20.17;;
30874;SDS011;17581;43.222;27.924;2023-12-04T11:42:43;34.95;;;20.52;;
30874;SDS011;17581;43.222;27.924;2023-12-04T11:45:09;32.50;;;19.30;;
30874;SDS011;17581;43.222;27.924;2023-12-04T11:47:48;38.08;;;21.60;;
30874;SDS011;17581;43.222;27.924;2023-12-04T11:50:19;31.88;;;19.27;;
30874;SDS011;17581;43.222;27.924;2023-12-04T11:52:46;39.03;;;21.60;;
30874;SDS011;17581;43.222;27.924;2023-12-04T11:55:12;34.42;;;20.08;;
30874;SDS011;17581;43.222;27.924;2023-12-04T11:57:41;40.45;;;22.38;;
30874;SDS011;17581;43.222;27.924;2023-12-04T12:00:11;34.78;;;20.83;;
30874;SDS011;17581;43.222;27.924;2023-12-04T12:02:46;37.22;;;22.42;;
30874;SDS011;17581;43.222;27.924;2023-12-04T12:05:17;44.60;;;26.25;;
30874;SDS011;17581;43.222;27.924;2023-12-04T12:07:44;45.08;;;27.35;;
30874;SDS011;17581;43.222;27.924;2023-12-04T12:10:11;30.77;;;20.63;;
30874;SDS011;17581;43.222;27.924;2023-12-04T12:12:39;37.72;;;23.45;;
30874;SDS011;17581;43.222;27.924;2023-12-04T12:15:08;30.13;;;19.73;;
30874;SDS011;17581;43.222;27.924;2023-12-04T12:17:37;34.73;;;22.00;;
30874;SDS011;17581;43.222;27.924;2023-12-04T12:20:07;34.05;;;21.25;;
30874;SDS011;17581;43.222;27.924;2023-12-04T12:22:34;31.23;;;20.35;;
30874;SDS011;17581;43.222;27.924;2023-12-04T12:25:00;36.63;;;22.35;;
30874;SDS011;17581;43.222;27.924;2023-12-04T12:27:27;32.92;;;21.70;;
30874;SDS011;17581;43.222;27.924;2023-12-04T12:29:52;42.63;;;23.90;;
30874;SDS011;17581;43.222;27.924;2023-12-04T12:32:18;33.47;;;19.55;;
30874;SDS011;17581;43.222;27.924;2023-12-04T12:34:43;38.28;;;20.63;;
30874;SDS011;17581;43.222;27.924;2023-12-04T12:37:09;39.20;;;20.35;;
30874;SDS011;17581;43.222;27.924;2023-12-04T12:39:34;37.47;;;19.20;;
30874;SDS011;17581;43.222;27.924;2023-12-04T12:42:00;34.85;;;19.65;;
30874;SDS011;17581;43.222;27.924;2023-12-04T12:44:26;30.48;;;19.05;;
30874;SDS011;17581;43.222;27.924;2023-12-04T12:46:53;31.50;;;20.33;;
30874;SDS011;17581;43.222;27.924;2023-12-04T12:49:19;56.03;;;25.05;;
30874;SDS011;17581;43.222;27.924;2023-12-04T12:51:48;36.85;;;21.08;;
30874;SDS011;17581;43.222;27.924;2023-12-04T12:54:13;49.20;;;25.48;;
30874;SDS011;17581;43.222;27.924;2023-12-04T12:56:39;51.17;;;26.48;;
30874;SDS011;17581;43.222;27.924;2023-12-04T12:59:05;41.65;;;21.60;;
30874;SDS011;17581;43.222;27.924;2023-12-04T13:01:32;34.92;;;21.17;;
30874;SDS011;17581;43.222;27.924;2023-12-04T13:03:57;29.30;;;19.58;;
30874;SDS011;17581;43.222;27.924;2023-12-04T13:06:23;47.80;;;27.52;;
30874;SDS011;17581;43.222;27.924;2023-12-04T13:08:49;35.55;;;20.55;;
30874;SDS011;17581;43.222;27.924;2023-12-04T13:11:15;26.52;;;18.33;;
30874;SDS011;17581;43.222;27.924;2023-12-04T13:13:40;37.83;;;23.42;;
30874;SDS011;17581;43.222;27.924;2023-12-04T13:16:06;35.88;;;19.75;;
30874;SDS011;17581;43.222;27.924;2023-12-04T13:18:31;35.30;;;18.95;;
30874;SDS011;17581;43.222;27.924;2023-12-04T13:21:00;32.40;;;17.95;;
30874;SDS011;17581;43.222;27.924;2023-12-04T13:23:26;30.58;;;16.58;;
30874;SDS011;17581;43.222;27.924;2023-12-04T13:25:52;26.33;;;17.63;;
30874;SDS011;17581;43.222;27.924;2023-12-04T13:28:21;34.20;;;19.73;;
30874;SDS011;17581;43.222;27.924;2023-12-04T13:30:46;33.15;;;22.63;;
30874;SDS011;17581;43.222;27.924;2023-12-04T13:33:12;32.20;;;20.65;;
30874;SDS011;17581;43.222;27.924;2023-12-04T13:35:37;36.60;;;20.40;;
30874;SDS011;17581;43.222;27.924;2023-12-04T13:38:03;29.27;;;18.83;;
30874;SDS011;17581;43.222;27.924;2023-12-04T13:40:32;30.77;;;19.67;;
30874;SDS011;17581;43.222;27.924;2023-12-04T13:42:59;48.85;;;19.83;;
30874;SDS011;17581;43.222;27.924;2023-12-04T13:45:43;30.90;;;18.88;;
30874;SDS011;17581;43.222;27.924;2023-12-04T13:48:09;51.25;;;22.42;;
30874;SDS011;17581;43.222;27.924;2023-12-04T13:50:34;34.35;;;21.75;;
30874;SDS011;17581;43.222;27.924;2023-12-04T13:53:00;38.05;;;22.27;;
30874;SDS011;17581;43.222;27.924;2023-12-04T13:55:26;53.80;;;23.60;;
30874;SDS011;17581;43.222;27.924;2023-12-04T13:58:10;31.95;;;19.25;;
30874;SDS011;17581;43.222;27.924;2023-12-04T14:00:56;41.90;;;22.98;;
30874;SDS011;17581;43.222;27.924;2023-12-04T14:03:21;54.53;;;22.48;;
30874;SDS011;17581;43.222;27.924;2023-12-04T14:05:47;47.83;;;21.13;;